createdAt,value
2023-04-19T00:00:55.901Z,0.60
2023-04-19T00:03:31.324Z,0.60
2023-04-19T00:06:00.560Z,0.70
2023-04-19T00:08:29.717Z,0.60
2023-04-19T00:10:58.879Z,0.60
2023-04-19T00:13:27.882Z,0.60
2023-04-19T00:16:00.127Z,0.75
2023-04-19T00:18:31.485Z,0.50
2023-04-19T00:21:03.423Z,0.40
2023-04-19T00:23:34.819Z,0.52
2023-04-19T00:26:05.914Z,1.05
2023-04-19T00:28:38.861Z,0.70
2023-04-19T00:31:07.935Z,0.70
2023-04-19T00:33:37.059Z,0.80
2023-04-19T00:36:08.099Z,0.50
2023-04-19T00:38:39.950Z,0.50
2023-04-19T00:41:10.223Z,0.60
2023-04-19T00:43:39.469Z,0.80
2023-04-19T00:46:15.053Z,0.70
2023-04-19T00:48:44.580Z,0.70
2023-04-19T00:51:14.731Z,0.75
2023-04-19T00:53:45.000Z,0.68
2023-04-19T00:56:15.793Z,1.00
2023-04-19T00:58:45.818Z,0.73
2023-04-19T01:01:21.887Z,0.60
2023-04-19T01:03:51.870Z,0.70
2023-04-19T01:06:23.172Z,0.80
2023-04-19T01:08:52.753Z,0.77
2023-04-19T01:11:30.443Z,0.93
2023-04-19T01:14:03.405Z,0.50
2023-04-19T01:16:34.278Z,0.75
2023-04-19T01:19:05.763Z,0.80
2023-04-19T01:21:35.010Z,0.98
2023-04-19T01:24:11.794Z,0.85
2023-04-19T01:26:41.502Z,0.60
2023-04-19T01:29:10.619Z,0.88
2023-04-19T01:31:39.993Z,0.90
2023-04-19T01:34:11.060Z,0.75
2023-04-19T01:36:40.779Z,0.77
2023-04-19T01:39:09.804Z,0.80
2023-04-19T01:41:42.270Z,0.80
2023-04-19T01:44:11.870Z,0.80
2023-04-19T01:46:45.672Z,0.95
2023-04-19T01:49:21.558Z,0.70
2023-04-19T01:51:51.478Z,0.75
2023-04-19T01:54:20.331Z,0.70
2023-04-19T01:56:51.782Z,0.70
2023-04-19T01:59:23.573Z,0.60
2023-04-19T02:01:53.042Z,0.65
2023-04-19T02:04:25.351Z,0.75
2023-04-19T02:06:54.449Z,0.80
2023-04-19T02:09:23.482Z,0.60
2023-04-19T02:11:52.482Z,0.60
2023-04-19T02:14:23.505Z,0.80
2023-04-19T02:16:52.552Z,0.75
2023-04-19T02:19:21.605Z,0.80
2023-04-19T02:21:51.338Z,0.77
2023-04-19T02:24:20.503Z,0.70
2023-04-19T02:26:49.972Z,0.57
2023-04-19T02:29:19.558Z,0.63
2023-04-19T02:31:48.908Z,0.73
2023-04-19T02:34:18.470Z,0.70
2023-04-19T02:36:47.697Z,0.80
2023-04-19T02:39:20.018Z,1.00
2023-04-19T02:41:50.878Z,0.88
2023-04-19T02:44:20.012Z,0.70
2023-04-19T02:46:55.846Z,0.80
2023-04-19T02:49:26.214Z,1.08
2023-04-19T02:51:55.375Z,1.00
2023-04-19T02:54:24.484Z,1.02
2023-04-19T02:56:54.773Z,1.33
2023-04-19T02:59:23.880Z,0.90
2023-04-19T03:01:56.895Z,1.17
2023-04-19T03:04:28.003Z,0.95
2023-04-19T03:06:57.863Z,0.98
2023-04-19T03:09:26.974Z,1.00
2023-04-19T03:11:57.393Z,1.10
2023-04-19T03:14:26.559Z,1.20
2023-04-19T03:16:55.961Z,1.55
2023-04-19T03:19:25.321Z,1.52
2023-04-19T03:21:54.371Z,2.95
2023-04-19T03:24:32.665Z,2.92
2023-04-19T03:27:13.845Z,2.72
2023-04-19T03:29:47.273Z,3.40
2023-04-19T03:32:18.223Z,1.40
2023-04-19T03:34:47.225Z,6.07
2023-04-19T03:37:20.400Z,5.03
2023-04-19T03:39:49.446Z,2.75
2023-04-19T03:42:26.433Z,2.90
2023-04-19T03:45:07.333Z,2.92
2023-04-19T03:47:44.113Z,1.77
2023-04-19T03:50:13.302Z,1.90
2023-04-19T03:52:45.498Z,1.08
2023-04-19T03:55:15.743Z,1.20
2023-04-19T03:57:45.233Z,0.88
2023-04-19T04:00:27.114Z,1.05
2023-04-19T04:03:01.000Z,0.80
2023-04-19T04:05:30.551Z,1.10
2023-04-19T04:07:59.732Z,1.13
2023-04-19T04:10:28.984Z,1.15
2023-04-19T04:12:58.504Z,1.00
2023-04-19T04:15:37.014Z,1.00
2023-04-19T04:18:12.305Z,0.90
2023-04-19T04:20:42.076Z,0.90
2023-04-19T04:23:14.792Z,1.02
2023-04-19T04:25:48.608Z,1.10
2023-04-19T04:28:18.037Z,1.20
2023-04-19T04:30:48.054Z,1.15
2023-04-19T04:33:17.964Z,2.30
2023-04-19T04:35:47.216Z,1.15
2023-04-19T04:38:24.953Z,0.82
2023-04-19T04:40:58.482Z,1.98
2023-04-19T04:43:30.201Z,1.45
2023-04-19T04:45:59.531Z,1.52
2023-04-19T04:48:33.736Z,1.90
2023-04-19T04:51:02.924Z,1.40
2023-04-19T04:53:33.242Z,1.20
2023-04-19T04:56:06.466Z,1.10
2023-04-19T04:58:43.487Z,1.58
2023-04-19T05:01:21.502Z,1.30
2023-04-19T05:03:51.210Z,1.00
2023-04-19T05:06:22.207Z,1.08
2023-04-19T05:08:51.289Z,1.08
2023-04-19T05:11:31.808Z,1.10
2023-04-19T05:14:00.930Z,1.10
2023-04-19T05:16:30.565Z,1.30
2023-04-19T05:18:59.648Z,2.83
2023-04-19T05:21:31.732Z,4.95
2023-04-19T05:24:01.142Z,5.47
2023-04-19T05:26:30.516Z,10.55
2023-04-19T05:29:00.290Z,11.30
2023-04-19T05:32:01.885Z,4.32
2023-04-19T05:34:34.587Z,8.23
2023-04-19T05:37:05.150Z,2.78
2023-04-19T05:39:34.615Z,1.90
2023-04-19T05:42:03.824Z,1.50
2023-04-19T05:44:32.850Z,2.78
2023-04-19T05:47:02.269Z,3.88
2023-04-19T05:49:57.199Z,11.77
2023-04-19T05:52:33.904Z,12.70
2023-04-19T05:55:06.834Z,11.55
2023-04-19T05:57:37.024Z,7.90
2023-04-19T06:00:08.705Z,5.50
2023-04-19T06:02:51.190Z,3.63
2023-04-19T06:05:20.913Z,3.03
2023-04-19T06:07:55.068Z,3.20
2023-04-19T06:10:27.081Z,5.80
2023-04-19T06:12:58.134Z,5.28
2023-04-19T06:15:27.943Z,4.97
2023-04-19T06:17:59.322Z,9.93
2023-04-19T06:20:29.260Z,7.80
2023-04-19T06:22:58.288Z,5.20
2023-04-19T06:25:27.363Z,5.47
2023-04-19T06:27:56.419Z,25.40
2023-04-19T06:30:26.036Z,27.05
2023-04-19T06:32:55.194Z,11.95
2023-04-19T06:35:26.055Z,5.35
2023-04-19T06:37:55.059Z,3.10
2023-04-19T06:40:24.368Z,5.60
2023-04-19T06:42:54.440Z,13.55
2023-04-19T06:45:23.555Z,10.85
2023-04-19T06:47:52.642Z,13.45
2023-04-19T06:50:22.484Z,9.05
2023-04-19T06:52:51.768Z,6.05
2023-04-19T06:55:20.742Z,4.05
2023-04-19T06:57:49.903Z,3.53
2023-04-19T07:00:19.201Z,4.85
2023-04-19T07:02:48.282Z,2.60
2023-04-19T07:05:17.553Z,2.10
2023-04-19T07:07:46.763Z,1.73
2023-04-19T07:10:15.781Z,2.10
2023-04-19T07:12:45.173Z,1.35
2023-04-19T07:15:14.432Z,1.42
2023-04-19T07:17:49.223Z,1.50
2023-04-19T07:20:18.761Z,1.70
2023-04-19T07:22:50.546Z,1.80
2023-04-19T07:25:19.922Z,2.25
2023-04-19T07:27:52.361Z,3.58
2023-04-19T07:30:21.683Z,6.22
2023-04-19T07:32:52.552Z,3.63
2023-04-19T07:35:21.784Z,1.83
2023-04-19T07:37:52.007Z,1.08
2023-04-19T07:40:21.112Z,1.60
2023-04-19T07:42:50.245Z,1.40
2023-04-19T07:45:19.426Z,1.10
2023-04-19T07:47:48.905Z,1.00
2023-04-19T07:50:18.289Z,1.08
2023-04-19T07:52:47.317Z,1.33
2023-04-19T07:55:16.350Z,1.92
2023-04-19T07:57:49.013Z,2.20
2023-04-19T08:00:19.668Z,2.08
2023-04-19T08:02:50.213Z,2.90
2023-04-19T08:05:20.046Z,2.40
2023-04-19T08:07:49.373Z,2.00
2023-04-19T08:10:22.238Z,2.22
2023-04-19T08:13:04.967Z,2.10
2023-04-19T08:18:08.364Z,1.90
2023-04-19T08:20:37.759Z,2.45
2023-04-19T08:23:20.608Z,1.90
2023-04-19T08:25:53.864Z,1.35
2023-04-19T08:28:22.811Z,1.27
2023-04-19T08:30:51.870Z,1.30
2023-04-19T08:33:21.221Z,1.17
2023-04-19T08:35:50.355Z,1.13
2023-04-19T08:38:19.357Z,1.10
2023-04-19T08:40:53.090Z,1.67
2023-04-19T08:43:22.981Z,1.17
2023-04-19T08:45:53.201Z,1.13
2023-04-19T08:48:24.182Z,1.13
2023-04-19T08:51:04.101Z,0.90
2023-04-19T08:53:37.144Z,1.17
2023-04-19T08:56:20.668Z,1.10
2023-04-19T08:59:11.657Z,1.10
2023-04-19T09:01:46.836Z,0.95
2023-04-19T09:04:35.581Z,1.30
2023-04-19T09:07:09.048Z,1.30
2023-04-19T09:09:48.761Z,1.10
2023-04-19T09:12:27.972Z,1.20
2023-04-19T09:17:29.019Z,1.20
2023-04-19T09:20:01.875Z,1.23
2023-04-19T09:22:31.250Z,1.10
2023-04-19T09:25:37.351Z,1.20
2023-04-19T09:27:54.015Z,1.30
2023-04-19T09:30:32.436Z,1.13
2023-04-19T09:33:06.358Z,1.10
2023-04-19T09:35:50.844Z,1.40
2023-04-19T09:38:20.062Z,1.10
2023-04-19T09:40:51.192Z,1.10
2023-04-19T09:46:05.992Z,1.00
2023-04-19T09:48:37.414Z,1.10
2023-04-19T09:51:10.046Z,1.20
2023-04-19T09:53:43.589Z,1.30
2023-04-19T09:56:16.060Z,1.30
2023-04-19T09:58:51.397Z,1.15
2023-04-19T10:01:25.539Z,1.23
2023-04-19T10:03:55.872Z,1.10
2023-04-19T10:08:57.908Z,1.17
2023-04-19T10:11:39.399Z,1.20
2023-04-19T10:14:12.806Z,1.40
2023-04-19T10:16:42.207Z,1.20
2023-04-19T10:19:14.759Z,1.23
2023-04-19T10:21:48.146Z,1.20
2023-04-19T10:24:20.530Z,1.10
2023-04-19T10:27:04.606Z,1.20
2023-04-19T10:30:03.885Z,1.30
2023-04-19T10:32:46.310Z,1.20
2023-04-19T10:35:32.382Z,1.00
2023-04-19T10:38:07.938Z,1.17
2023-04-19T10:40:56.997Z,1.35
2023-04-19T10:43:28.508Z,1.13
2023-04-19T10:46:14.488Z,1.48
2023-04-19T10:49:03.094Z,1.33
2023-04-19T10:51:47.753Z,1.20
2023-04-19T10:54:33.252Z,1.10
2023-04-19T10:57:11.101Z,1.02
2023-04-19T10:59:41.533Z,1.30
2023-04-19T11:02:29.764Z,1.33
2023-04-19T11:05:01.637Z,1.30
2023-04-19T11:07:38.609Z,1.23
2023-04-19T11:12:36.850Z,4.90
2023-04-19T11:15:07.563Z,3.20
2023-04-19T11:17:38.558Z,3.28
2023-04-19T11:20:12.798Z,2.30
2023-04-19T11:22:43.945Z,1.70
2023-04-19T11:25:20.143Z,1.90
2023-04-19T11:27:51.908Z,2.70
2023-04-19T11:30:31.584Z,3.65
2023-04-19T11:33:00.607Z,2.33
2023-04-19T11:35:31.423Z,2.00
2023-04-19T11:38:00.963Z,2.58
2023-04-19T11:40:30.631Z,1.60
2023-04-19T11:43:02.206Z,1.90
2023-04-19T11:45:36.662Z,1.30
2023-04-19T11:50:50.270Z,2.60
2023-04-19T11:53:25.366Z,5.20
2023-04-19T11:56:12.518Z,3.75
2023-04-19T11:58:51.690Z,12.57
2023-04-19T12:01:25.546Z,8.13
2023-04-19T12:03:57.607Z,14.90
2023-04-19T12:06:29.977Z,12.27
2023-04-19T12:08:59.425Z,5.60
2023-04-19T12:11:47.206Z,4.30
2023-04-19T12:14:20.780Z,5.72
2023-04-19T12:17:05.898Z,5.35
2023-04-19T12:19:43.308Z,2.97
2023-04-19T12:22:14.710Z,1.73
2023-04-19T12:24:44.766Z,1.27
2023-04-19T12:27:13.847Z,1.30
2023-04-19T12:29:43.073Z,1.10
2023-04-19T12:32:12.518Z,1.30
2023-04-19T12:34:41.486Z,1.27
2023-04-19T12:37:10.473Z,1.38
2023-04-19T12:39:39.712Z,1.10
2023-04-19T12:42:09.087Z,1.30
2023-04-19T12:44:38.948Z,1.30
2023-04-19T12:47:08.473Z,1.20
2023-04-19T12:49:37.544Z,1.30
2023-04-19T12:52:08.406Z,1.63
2023-04-19T12:54:37.438Z,1.17
2023-04-19T12:57:06.505Z,1.40
2023-04-19T12:59:35.777Z,2.78
2023-04-19T13:02:04.820Z,3.72
2023-04-19T13:04:34.351Z,2.22
2023-04-19T13:07:04.299Z,1.20
2023-04-19T13:09:33.464Z,1.20
2023-04-19T13:12:02.544Z,1.20
2023-04-19T13:14:32.717Z,2.10
2023-04-19T13:17:03.048Z,1.25
2023-04-19T13:19:32.133Z,1.50
2023-04-19T13:22:01.101Z,1.80
2023-04-19T13:24:30.331Z,2.55
2023-04-19T13:27:02.175Z,1.50
2023-04-19T13:29:34.472Z,1.95
2023-04-19T13:32:03.521Z,1.20
2023-04-19T13:34:32.508Z,1.23
2023-04-19T13:37:01.867Z,1.50
2023-04-19T13:39:31.080Z,1.35
2023-04-19T13:42:00.399Z,1.40
2023-04-19T13:44:30.510Z,1.75
2023-04-19T13:46:59.905Z,2.30
2023-04-19T13:49:28.951Z,3.30
2023-04-19T13:51:58.182Z,1.42
2023-04-19T13:54:27.258Z,2.28
2023-04-19T13:56:57.044Z,2.10
2023-04-19T13:59:26.970Z,2.13
2023-04-19T14:01:56.787Z,1.77
2023-04-19T14:04:26.426Z,1.05
2023-04-19T14:06:55.736Z,1.10
2023-04-19T14:09:25.851Z,1.10
2023-04-19T14:11:55.251Z,1.02
2023-04-19T14:14:24.467Z,1.00
2023-04-19T14:16:53.744Z,0.90
2023-04-19T14:19:26.982Z,1.75
2023-04-19T14:21:57.434Z,1.38
2023-04-19T14:24:29.446Z,1.30
2023-04-19T14:29:33.441Z,1.40
2023-04-19T14:32:16.578Z,1.10
2023-04-19T14:34:55.712Z,1.20
2023-04-19T14:37:26.428Z,1.10
2023-04-19T14:39:56.299Z,1.05
2023-04-19T14:42:25.450Z,1.30
2023-04-19T14:44:54.955Z,1.10
2023-04-19T14:47:24.132Z,1.48
2023-04-19T14:49:54.412Z,1.40
2023-04-19T14:52:23.634Z,1.20
2023-04-19T14:54:56.021Z,1.30
2023-04-19T14:57:26.659Z,1.15
2023-04-19T14:59:59.005Z,1.00
2023-04-19T15:02:29.073Z,1.25
2023-04-19T15:05:00.736Z,1.25
2023-04-19T15:07:30.297Z,0.95
2023-04-19T15:10:00.309Z,0.95
2023-04-19T15:12:31.003Z,1.00
2023-04-19T15:15:00.291Z,0.90
2023-04-19T15:17:29.593Z,1.23
2023-04-19T15:19:59.509Z,1.02
2023-04-19T15:22:28.999Z,1.00
2023-04-19T15:24:59.310Z,0.80
2023-04-19T15:27:29.795Z,0.90
2023-04-19T15:29:59.040Z,1.10
2023-04-19T15:32:30.907Z,1.00
2023-04-19T15:35:00.159Z,1.00
2023-04-19T15:37:32.634Z,1.00
2023-04-19T15:40:01.876Z,1.00
2023-04-19T15:42:33.675Z,1.20
2023-04-19T15:45:03.446Z,1.10
2023-04-19T15:47:32.766Z,0.90
2023-04-19T15:50:05.194Z,1.95
2023-04-19T15:52:35.624Z,1.10
2023-04-19T15:55:05.057Z,1.30
2023-04-19T15:57:34.208Z,1.10
2023-04-19T16:00:03.436Z,0.90
2023-04-19T16:02:41.803Z,1.20
2023-04-19T16:05:11.513Z,0.95
2023-04-19T16:07:40.659Z,1.95
2023-04-19T16:10:12.928Z,1.77
2023-04-19T16:12:43.378Z,1.20
2023-04-19T16:15:12.720Z,1.10
2023-04-19T16:17:44.270Z,1.20
2023-04-19T16:20:14.356Z,1.02
2023-04-19T16:22:43.601Z,0.90
2023-04-19T16:25:13.587Z,0.93
2023-04-19T16:27:47.212Z,1.00
2023-04-19T16:30:17.419Z,0.80
2023-04-19T16:32:46.623Z,1.15
2023-04-19T16:35:15.669Z,1.00
2023-04-19T16:37:44.926Z,0.93
2023-04-19T16:40:15.193Z,1.00
2023-04-19T16:42:44.319Z,0.93
2023-04-19T16:45:13.776Z,1.13
2023-04-19T16:47:46.642Z,1.10
2023-04-19T16:50:16.081Z,0.80
2023-04-19T16:52:45.337Z,1.10
2023-04-19T16:55:15.249Z,1.25
2023-04-19T16:57:45.051Z,1.30
2023-04-19T17:00:14.929Z,1.10
2023-04-19T17:02:46.811Z,1.20
2023-04-19T17:05:17.197Z,1.27
2023-04-19T17:07:46.419Z,1.40
2023-04-19T17:10:17.191Z,1.17
2023-04-19T17:12:46.440Z,0.82
2023-04-19T17:15:15.396Z,1.23
2023-04-19T17:17:44.600Z,1.15
2023-04-19T17:20:14.538Z,0.95
2023-04-19T17:22:43.881Z,1.08
2023-04-19T17:25:15.907Z,1.02
2023-04-19T17:27:48.034Z,1.13
2023-04-19T17:30:17.453Z,1.23
2023-04-19T17:32:46.793Z,1.00
2023-04-19T17:35:16.805Z,1.10
2023-04-19T17:37:47.002Z,0.95
2023-04-19T17:40:18.700Z,1.20
2023-04-19T17:42:47.825Z,1.23
2023-04-19T17:45:17.397Z,2.40
2023-04-19T17:47:47.114Z,1.00
2023-04-19T17:50:16.879Z,1.02
2023-04-19T17:52:46.059Z,0.93
2023-04-19T17:55:15.680Z,0.85
2023-04-19T17:57:47.164Z,1.08
2023-04-19T18:00:17.221Z,1.30
2023-04-19T18:02:46.327Z,0.70
2023-04-19T18:05:18.075Z,1.10
2023-04-19T18:07:49.609Z,1.13
2023-04-19T18:10:21.860Z,0.90
2023-04-19T18:12:57.677Z,1.10
2023-04-19T18:15:46.530Z,1.20
2023-04-19T18:18:31.255Z,1.13
2023-04-19T18:21:24.056Z,1.10
2023-04-19T18:23:58.892Z,1.10
2023-04-19T18:26:43.045Z,1.08
2023-04-19T18:29:14.026Z,1.20
2023-04-19T18:31:43.513Z,1.05
2023-04-19T18:34:12.710Z,1.02
2023-04-19T18:36:41.703Z,1.20
2023-04-19T18:39:11.119Z,1.10
2023-04-19T18:41:40.518Z,1.20
2023-04-19T18:46:42.208Z,1.13
2023-04-19T18:49:11.185Z,1.17
2023-04-19T18:51:40.299Z,0.93
2023-04-19T18:54:09.560Z,1.30
2023-04-19T18:59:10.722Z,0.90
2023-04-19T19:01:40.024Z,1.15
2023-04-19T19:04:28.320Z,0.80
2023-04-19T19:07:01.551Z,0.95
2023-04-19T19:09:37.345Z,1.10
2023-04-19T19:12:09.507Z,1.00
2023-04-19T19:14:41.824Z,1.15
2023-04-19T19:17:11.245Z,0.77
2023-04-19T19:19:40.681Z,1.08
2023-04-19T19:22:24.988Z,0.90
2023-04-19T19:24:59.528Z,1.05
2023-04-19T19:27:30.692Z,1.10
2023-04-19T19:30:08.504Z,1.23
2023-04-19T19:32:38.074Z,1.25
2023-04-19T19:35:11.407Z,2.13
2023-04-19T19:37:42.087Z,1.50
2023-04-19T19:40:12.796Z,0.85
2023-04-19T19:42:42.189Z,1.02
2023-04-19T19:45:14.114Z,1.17
2023-04-19T19:47:45.770Z,1.20
2023-04-19T19:52:48.391Z,1.40
2023-04-19T19:55:18.691Z,0.90
2023-04-19T19:58:21.004Z,1.20
2023-04-19T20:00:46.224Z,1.05
2023-04-19T20:03:32.804Z,0.80
2023-04-19T20:08:44.576Z,0.95
2023-04-19T20:11:14.348Z,1.10
2023-04-19T20:13:43.393Z,1.08
2023-04-19T20:16:12.545Z,0.73
2023-04-19T20:18:43.326Z,1.10
2023-04-19T20:21:12.887Z,1.10
2023-04-19T20:23:42.105Z,1.17
2023-04-19T20:26:11.527Z,0.82
2023-04-19T20:28:40.602Z,0.75
2023-04-19T20:31:15.351Z,1.08
2023-04-19T20:33:46.958Z,0.75
2023-04-19T20:36:19.115Z,0.70
2023-04-19T20:38:48.113Z,0.70
2023-04-19T20:41:18.876Z,0.85
2023-04-19T20:43:47.965Z,0.70
2023-04-19T20:46:17.650Z,0.70
2023-04-19T20:48:47.650Z,1.13
2023-04-19T20:51:18.971Z,0.70
2023-04-19T20:53:48.343Z,0.70
2023-04-19T20:56:20.032Z,0.60
2023-04-19T20:58:49.248Z,1.02
2023-04-19T21:01:18.638Z,0.73
2023-04-19T21:03:48.427Z,0.80
2023-04-19T21:06:17.702Z,0.70
2023-04-19T21:08:46.938Z,0.93
2023-04-19T21:11:18.560Z,0.70
2023-04-19T21:13:47.773Z,0.73
2023-04-19T21:16:17.496Z,0.60
2023-04-19T21:18:46.679Z,0.95
2023-04-19T21:21:15.812Z,0.68
2023-04-19T21:23:44.863Z,0.70
2023-04-19T21:26:13.943Z,0.77
2023-04-19T21:28:43.119Z,0.65
2023-04-19T21:31:12.177Z,0.82
2023-04-19T21:33:41.457Z,0.80
2023-04-19T21:36:10.621Z,0.70
2023-04-19T21:38:41.793Z,0.80
2023-04-19T21:41:22.481Z,0.60
2023-04-19T21:43:54.906Z,1.08
2023-04-19T21:46:29.690Z,0.88
2023-04-19T21:48:58.949Z,0.77
2023-04-19T21:51:28.384Z,0.57
2023-04-19T21:53:57.791Z,0.70
2023-04-19T21:56:30.252Z,0.70
2023-04-19T21:59:02.411Z,0.70
2023-04-19T22:01:33.537Z,1.00
2023-04-19T22:04:03.222Z,0.90
2023-04-19T22:06:33.015Z,0.60
2023-04-19T22:09:03.877Z,0.60
2023-04-19T22:11:37.287Z,0.60
2023-04-19T22:14:07.126Z,0.80
2023-04-19T22:16:39.720Z,0.73
2023-04-19T22:19:09.267Z,0.70
2023-04-19T22:21:38.379Z,0.80
2023-04-19T22:24:10.328Z,0.65
2023-04-19T22:26:40.329Z,0.82
2023-04-19T22:29:11.003Z,0.80
2023-04-19T22:31:42.740Z,0.75
2023-04-19T22:34:11.921Z,0.90
2023-04-19T22:36:40.973Z,0.60
2023-04-19T22:39:13.027Z,0.68
2023-04-19T22:41:42.313Z,0.68
2023-04-19T22:44:12.030Z,0.60
2023-04-19T22:46:41.270Z,0.60
2023-04-19T22:49:10.936Z,0.70
2023-04-19T22:51:40.279Z,0.50
2023-04-19T22:54:11.995Z,0.52
2023-04-19T22:56:41.178Z,0.55
2023-04-19T22:59:10.281Z,0.70
2023-04-19T23:01:39.826Z,0.60
2023-04-19T23:04:08.830Z,0.57
2023-04-19T23:06:37.800Z,0.65
2023-04-19T23:09:07.038Z,0.70
2023-04-19T23:11:40.277Z,0.60
2023-04-19T23:14:32.763Z,0.82
2023-04-19T23:17:05.618Z,0.63
2023-04-19T23:19:34.937Z,0.73
2023-04-19T23:22:06.188Z,0.80
2023-04-19T23:24:37.217Z,1.35
2023-04-19T23:27:07.168Z,0.90
2023-04-19T23:29:36.627Z,0.65
2023-04-19T23:32:05.811Z,0.70
2023-04-19T23:34:38.002Z,1.00
2023-04-19T23:37:09.481Z,0.85
2023-04-19T23:39:38.790Z,0.57
2023-04-19T23:42:07.950Z,0.80
2023-04-19T23:44:38.752Z,0.60
2023-04-19T23:47:07.760Z,0.70
2023-04-19T23:49:36.985Z,0.73
2023-04-19T23:52:06.281Z,0.80
2023-04-19T23:54:44.618Z,0.75
2023-04-19T23:57:13.933Z,0.50
2023-04-19T23:59:43.350Z,0.60
